createdAt,value
2023-03-15T00:01:24.106Z,3.13
2023-03-15T00:03:50.938Z,2.10
2023-03-15T00:06:17.749Z,2.77
2023-03-15T00:08:49.708Z,2.23
2023-03-15T00:11:18.058Z,2.53
2023-03-15T00:13:46.312Z,2.57
2023-03-15T00:16:17.307Z,3.60
2023-03-15T00:18:46.925Z,2.53
2023-03-15T00:21:14.174Z,3.97
2023-03-15T00:23:40.928Z,2.80
2023-03-15T00:26:07.663Z,2.50
2023-03-15T00:28:34.373Z,4.50
2023-03-15T00:31:09.247Z,3.23
2023-03-15T00:33:36.093Z,6.53
2023-03-15T00:36:08.633Z,2.50
2023-03-15T00:38:37.699Z,6.50
2023-03-15T00:41:17.670Z,2.67
2023-03-15T00:43:45.117Z,5.30
2023-03-15T00:46:13.073Z,5.03
2023-03-15T00:48:40.449Z,2.60
2023-03-15T00:51:25.036Z,2.87
2023-03-15T00:53:53.493Z,3.00
2023-03-15T00:56:26.931Z,3.80
2023-03-15T00:58:53.976Z,2.80
2023-03-15T01:01:28.465Z,4.40
2023-03-15T01:03:56.144Z,2.93
2023-03-15T01:06:27.679Z,3.47
2023-03-15T01:08:57.561Z,4.70
2023-03-15T01:11:27.964Z,3.33
2023-03-15T01:13:57.712Z,4.10
2023-03-15T01:16:25.683Z,4.50
2023-03-15T01:18:53.691Z,3.30
2023-03-15T01:21:23.394Z,2.67
2023-03-15T01:23:50.834Z,3.63
2023-03-15T01:26:18.067Z,3.03
2023-03-15T01:28:45.407Z,3.30
2023-03-15T01:31:23.119Z,4.00
2023-03-15T01:33:50.002Z,3.73
2023-03-15T01:36:17.259Z,2.67
2023-03-15T01:38:44.436Z,3.50
2023-03-15T01:41:13.698Z,4.30
2023-03-15T01:43:47.005Z,3.77
2023-03-15T01:46:29.483Z,2.53
2023-03-15T01:49:17.493Z,2.83
2023-03-15T01:51:56.487Z,4.13
2023-03-15T01:54:34.354Z,2.93
2023-03-15T01:57:11.256Z,4.50
2023-03-15T01:59:47.870Z,3.00
2023-03-15T02:02:14.942Z,2.57
2023-03-15T02:04:49.873Z,2.60
2023-03-15T02:07:19.667Z,4.13
2023-03-15T02:10:03.392Z,4.30
2023-03-15T02:12:35.043Z,2.63
2023-03-15T02:15:05.491Z,2.17
2023-03-15T02:17:43.309Z,2.20
2023-03-15T02:20:32.372Z,2.10
2023-03-15T02:23:14.048Z,3.60
2023-03-15T02:26:15.021Z,2.10
2023-03-15T02:28:43.623Z,2.40
2023-03-15T02:31:11.122Z,2.57
2023-03-15T02:33:52.048Z,2.47
2023-03-15T02:36:21.949Z,3.90
2023-03-15T02:38:50.214Z,2.03
2023-03-15T02:41:36.428Z,6.73
2023-03-15T02:44:14.360Z,3.80
2023-03-15T02:46:43.767Z,2.30
2023-03-15T02:49:13.625Z,3.03
2023-03-15T02:51:40.328Z,2.60
2023-03-15T02:54:07.118Z,2.20
2023-03-15T02:56:33.918Z,2.80
2023-03-15T02:59:01.058Z,4.77
2023-03-15T03:01:27.896Z,2.90
2023-03-15T03:03:54.662Z,4.60
2023-03-15T03:06:21.448Z,2.50
2023-03-15T03:08:50.425Z,3.47
2023-03-15T03:11:17.179Z,3.30
2023-03-15T03:13:43.938Z,2.93
2023-03-15T03:16:11.340Z,2.93
2023-03-15T03:18:38.766Z,4.87
2023-03-15T03:21:07.812Z,3.63
2023-03-15T03:23:36.303Z,3.30
2023-03-15T03:26:04.261Z,6.60
2023-03-15T03:28:33.320Z,5.97
2023-03-15T03:31:00.569Z,5.27
2023-03-15T03:33:27.370Z,5.73
2023-03-15T03:35:54.283Z,3.53
2023-03-15T03:38:21.124Z,3.80
2023-03-15T03:40:47.819Z,3.27
2023-03-15T03:43:14.562Z,3.40
2023-03-15T03:45:41.282Z,3.87
2023-03-15T03:48:08.882Z,3.30
2023-03-15T03:50:35.770Z,6.87
2023-03-15T03:53:02.536Z,2.83
2023-03-15T03:55:29.333Z,3.07
2023-03-15T03:57:56.048Z,4.30
2023-03-15T04:00:22.812Z,6.10
2023-03-15T04:02:49.578Z,3.87
2023-03-15T04:05:16.470Z,3.83
2023-03-15T04:07:43.226Z,3.47
2023-03-15T04:10:14.560Z,4.37
2023-03-15T04:12:43.797Z,3.43
2023-03-15T04:15:12.137Z,3.83
2023-03-15T04:17:39.559Z,6.20
2023-03-15T04:20:09.077Z,3.70
2023-03-15T04:22:35.951Z,5.03
2023-03-15T04:25:03.478Z,3.07
2023-03-15T04:27:30.316Z,6.63
2023-03-15T04:29:57.121Z,6.03
2023-03-15T04:32:24.097Z,3.93
2023-03-15T04:34:51.423Z,6.20
2023-03-15T04:37:19.112Z,4.63
2023-03-15T04:39:45.917Z,7.27
2023-03-15T04:42:12.751Z,9.73
2023-03-15T04:44:39.561Z,9.37
2023-03-15T04:47:06.649Z,8.97
2023-03-15T04:49:36.237Z,6.67
2023-03-15T04:52:02.963Z,6.37
2023-03-15T04:54:29.837Z,5.07
2023-03-15T04:56:56.604Z,5.13
2023-03-15T04:59:23.490Z,6.80
2023-03-15T05:01:50.352Z,9.83
2023-03-15T05:04:17.185Z,6.43
2023-03-15T05:06:43.943Z,7.80
2023-03-15T05:09:17.844Z,7.30
2023-03-15T05:11:46.296Z,7.03
2023-03-15T05:14:13.881Z,8.30
2023-03-15T05:16:40.940Z,8.93
2023-03-15T05:19:07.731Z,6.43
2023-03-15T05:21:34.696Z,8.00
2023-03-15T05:24:01.448Z,9.13
2023-03-15T05:26:28.183Z,7.17
2023-03-15T05:28:55.108Z,11.30
2023-03-15T05:31:21.894Z,6.33
2023-03-15T05:33:48.938Z,10.13
2023-03-15T05:36:15.821Z,7.27
2023-03-15T05:38:45.147Z,6.07
2023-03-15T05:41:12.399Z,8.13
2023-03-15T05:43:39.143Z,10.87
2023-03-15T05:46:05.945Z,7.87
2023-03-15T05:48:32.659Z,7.53
2023-03-15T05:50:59.367Z,10.03
2023-03-15T05:53:26.125Z,6.03
2023-03-15T05:55:52.927Z,8.23
2023-03-15T05:58:19.760Z,7.53
2023-03-15T06:00:46.636Z,5.50
2023-03-15T06:03:13.397Z,9.50
2023-03-15T06:05:40.374Z,6.80
2023-03-15T06:08:07.187Z,7.47
2023-03-15T06:10:34.259Z,9.93
2023-03-15T06:13:01.052Z,10.30
2023-03-15T06:15:27.905Z,10.20
2023-03-15T06:17:54.771Z,11.13
2023-03-15T06:20:21.497Z,7.00
2023-03-15T06:22:48.320Z,9.07
2023-03-15T06:25:15.145Z,7.20
2023-03-15T06:27:41.879Z,9.70
2023-03-15T06:30:10.554Z,11.90
2023-03-15T06:32:37.422Z,15.40
2023-03-15T06:35:05.263Z,8.37
2023-03-15T06:37:35.425Z,10.67
2023-03-15T06:40:08.982Z,10.33
2023-03-15T06:42:37.535Z,10.30
2023-03-15T06:45:05.892Z,7.90
2023-03-15T06:47:32.751Z,10.40
2023-03-15T06:49:59.504Z,8.90
2023-03-15T06:52:26.310Z,13.47
2023-03-15T06:54:53.028Z,12.60
2023-03-15T06:57:19.768Z,10.93
2023-03-15T06:59:46.552Z,9.80
2023-03-15T07:02:18.934Z,17.80
2023-03-15T07:04:46.404Z,10.13
2023-03-15T07:07:14.300Z,6.83
2023-03-15T07:09:41.328Z,11.77
2023-03-15T07:12:10.678Z,7.97
2023-03-15T07:14:37.556Z,8.13
2023-03-15T07:17:04.605Z,14.73
2023-03-15T07:19:31.429Z,9.20
2023-03-15T07:21:58.124Z,10.67
2023-03-15T07:24:24.977Z,7.90
2023-03-15T07:26:56.122Z,9.00
2023-03-15T07:29:24.560Z,7.90
2023-03-15T07:31:51.756Z,10.93
2023-03-15T07:34:19.293Z,6.80
2023-03-15T07:36:46.066Z,9.07
2023-03-15T07:39:12.988Z,11.00
2023-03-15T07:41:39.816Z,12.07
2023-03-15T07:44:06.813Z,8.10
2023-03-15T07:46:33.967Z,7.70
2023-03-15T07:49:00.866Z,9.43
2023-03-15T07:51:27.700Z,10.60
2023-03-15T07:53:54.423Z,7.90
2023-03-15T07:56:21.269Z,7.93
2023-03-15T07:58:48.029Z,8.83
2023-03-15T08:01:14.816Z,5.63
2023-03-15T08:03:41.549Z,10.53
2023-03-15T08:06:08.444Z,4.83
2023-03-15T08:08:35.162Z,5.27
2023-03-15T08:11:04.321Z,5.00
2023-03-15T08:13:31.037Z,5.60
2023-03-15T08:15:57.862Z,10.43
2023-03-15T08:18:24.695Z,5.40
2023-03-15T08:20:52.197Z,12.37
2023-03-15T08:23:18.924Z,5.00
2023-03-15T08:25:45.782Z,6.37
2023-03-15T08:28:12.531Z,6.80
2023-03-15T08:30:39.967Z,8.90
2023-03-15T08:33:08.438Z,5.20
2023-03-15T08:35:35.471Z,8.90
2023-03-15T08:38:02.604Z,6.77
2023-03-15T08:40:30.614Z,8.50
2023-03-15T08:42:58.069Z,6.57
2023-03-15T08:45:26.013Z,8.47
2023-03-15T08:48:00.282Z,6.73
2023-03-15T08:50:28.615Z,7.77
2023-03-15T08:52:55.529Z,7.23
2023-03-15T08:55:22.342Z,9.50
2023-03-15T08:57:49.316Z,11.47
2023-03-15T09:00:25.827Z,5.30
2023-03-15T09:02:52.613Z,4.47
2023-03-15T09:05:21.791Z,4.80
2023-03-15T09:07:49.045Z,7.00
2023-03-15T09:10:17.459Z,3.17
2023-03-15T09:12:52.029Z,4.87
2023-03-15T09:15:19.247Z,4.70
2023-03-15T09:17:46.220Z,6.70
2023-03-15T09:20:16.453Z,9.63
2023-03-15T09:22:49.577Z,5.23
2023-03-15T09:25:16.435Z,9.47
2023-03-15T09:27:43.156Z,9.10
2023-03-15T09:30:10.991Z,4.90
2023-03-15T09:32:37.758Z,10.93
2023-03-15T09:35:07.868Z,8.63
2023-03-15T09:37:35.736Z,3.60
2023-03-15T09:40:02.528Z,12.13
2023-03-15T09:42:41.819Z,4.67
2023-03-15T09:45:33.053Z,15.63
2023-03-15T09:48:15.095Z,6.10
2023-03-15T09:50:50.759Z,4.93
2023-03-15T09:53:42.759Z,4.30
2023-03-15T09:56:28.957Z,9.37
2023-03-15T09:58:59.851Z,6.00
2023-03-15T10:01:35.723Z,5.40
2023-03-15T10:04:42.209Z,5.20
2023-03-15T10:07:15.161Z,6.63
2023-03-15T10:09:43.397Z,12.60
2023-03-15T10:12:29.696Z,5.47
2023-03-15T10:15:26.000Z,6.07
2023-03-15T10:17:58.671Z,7.23
2023-03-15T10:20:39.382Z,5.03
2023-03-15T10:23:17.990Z,5.87
2023-03-15T10:25:48.410Z,7.53
2023-03-15T10:28:28.225Z,8.20
2023-03-15T10:31:00.609Z,5.10
2023-03-15T10:33:37.315Z,7.30
2023-03-15T10:36:24.255Z,6.10
2023-03-15T10:38:51.370Z,5.83
2023-03-15T10:41:42.956Z,8.43
2023-03-15T10:44:26.342Z,10.30
2023-03-15T10:47:21.513Z,4.60
2023-03-15T10:49:59.504Z,2.87
2023-03-15T10:52:27.208Z,5.83
2023-03-15T10:54:58.790Z,3.43
2023-03-15T10:57:39.124Z,3.37
2023-03-15T11:00:29.348Z,7.03
2023-03-15T11:03:06.783Z,5.90
2023-03-15T11:05:47.709Z,9.70
2023-03-15T11:08:19.045Z,5.87
2023-03-15T11:11:00.136Z,4.03
2023-03-15T11:13:33.537Z,6.23
2023-03-15T11:16:05.820Z,4.43
2023-03-15T11:18:43.847Z,5.83
2023-03-15T11:21:17.410Z,4.23
2023-03-15T11:23:48.650Z,4.40
2023-03-15T11:26:32.555Z,3.07
2023-03-15T11:29:14.122Z,6.87
2023-03-15T11:31:41.148Z,2.60
2023-03-15T11:34:37.497Z,3.67
2023-03-15T11:37:15.842Z,3.20
2023-03-15T11:40:11.271Z,6.30
2023-03-15T11:43:00.565Z,6.07
2023-03-15T11:45:57.886Z,3.90
2023-03-15T11:48:42.748Z,2.87
2023-03-15T11:51:12.831Z,2.53
2023-03-15T11:54:04.703Z,4.83
2023-03-15T11:56:43.366Z,3.17
2023-03-15T11:59:27.503Z,3.57
2023-03-15T12:02:20.389Z,6.07
2023-03-15T12:04:49.970Z,6.20
2023-03-15T12:07:19.693Z,6.07
2023-03-15T12:09:57.920Z,5.53
2023-03-15T12:12:24.608Z,12.57
2023-03-15T12:15:19.774Z,7.30
2023-03-15T12:17:57.773Z,3.40
2023-03-15T12:20:42.708Z,4.53
2023-03-15T12:23:18.076Z,4.47
2023-03-15T12:26:03.834Z,2.77
2023-03-15T12:28:39.814Z,3.20
2023-03-15T12:31:14.702Z,3.37
2023-03-15T12:33:52.805Z,3.33
2023-03-15T12:36:37.991Z,6.43
2023-03-15T12:39:16.455Z,5.70
2023-03-15T12:41:50.325Z,4.93
2023-03-15T12:44:38.490Z,3.53
2023-03-15T12:47:10.130Z,5.23
2023-03-15T12:49:44.550Z,7.93
2023-03-15T12:52:11.207Z,5.70
2023-03-15T12:54:49.584Z,3.23
2023-03-15T12:57:23.229Z,4.53
2023-03-15T13:00:03.217Z,3.63
2023-03-15T13:02:52.724Z,7.13
2023-03-15T13:05:25.843Z,3.80
2023-03-15T13:08:04.115Z,4.77
2023-03-15T13:10:51.043Z,3.77
2023-03-15T13:13:39.226Z,2.60
2023-03-15T13:16:38.165Z,3.70
2023-03-15T13:19:19.129Z,2.70
2023-03-15T13:22:21.392Z,5.93
2023-03-15T13:25:27.313Z,6.23
2023-03-15T13:28:06.586Z,2.90
2023-03-15T13:30:46.428Z,5.70
2023-03-15T13:33:29.642Z,3.33
2023-03-15T13:36:03.687Z,6.73
2023-03-15T13:38:41.296Z,3.07
2023-03-15T13:41:30.234Z,2.83
2023-03-15T13:44:01.427Z,3.07
2023-03-15T13:46:31.059Z,2.87
2023-03-15T13:49:00.555Z,5.83
2023-03-15T13:51:34.767Z,3.13
2023-03-15T13:54:18.839Z,2.67
2023-03-15T13:57:03.473Z,2.43
2023-03-15T13:59:42.720Z,4.23
2023-03-15T14:02:54.084Z,2.30
2023-03-15T14:05:28.113Z,2.30
2023-03-15T14:08:06.796Z,3.67
2023-03-15T14:10:39.390Z,2.30
2023-03-15T14:13:46.688Z,3.53
2023-03-15T14:16:57.365Z,2.80
2023-03-15T14:19:35.377Z,2.60
2023-03-15T14:22:17.558Z,2.67
2023-03-15T14:24:47.790Z,2.45
2023-03-15T14:27:22.993Z,2.43
2023-03-15T14:29:57.727Z,2.43
2023-03-15T14:32:28.894Z,2.10
2023-03-15T14:35:23.827Z,2.23
2023-03-15T14:38:21.617Z,2.43
2023-03-15T14:40:50.085Z,3.33
2023-03-15T14:43:17.289Z,2.40
2023-03-15T14:45:49.334Z,4.00
2023-03-15T14:48:28.550Z,2.67
2023-03-15T14:50:56.274Z,2.77
2023-03-15T14:53:26.597Z,2.30
2023-03-15T14:55:53.372Z,2.30
2023-03-15T14:58:22.286Z,1.90
2023-03-15T15:00:53.478Z,2.07
2023-03-15T15:03:33.301Z,1.90
2023-03-15T15:06:02.342Z,2.00
2023-03-15T15:08:31.531Z,2.20
2023-03-15T15:10:58.806Z,2.30
2023-03-15T15:13:29.475Z,2.63
2023-03-15T15:15:57.261Z,2.17
2023-03-15T15:18:27.176Z,2.40
2023-03-15T15:21:00.478Z,2.73
2023-03-15T15:23:31.686Z,2.23
2023-03-15T15:26:05.872Z,2.40
2023-03-15T15:28:37.031Z,1.90
2023-03-15T15:31:07.499Z,1.80
2023-03-15T15:33:34.478Z,2.10
2023-03-15T15:36:01.821Z,1.97
2023-03-15T15:38:38.584Z,2.13
2023-03-15T15:41:21.644Z,2.07
2023-03-15T15:43:48.376Z,2.30
2023-03-15T15:46:15.324Z,2.17
2023-03-15T15:48:42.625Z,1.77
2023-03-15T15:51:29.119Z,2.20
2023-03-15T15:53:59.923Z,2.50
2023-03-15T15:56:44.120Z,2.80
2023-03-15T15:59:14.883Z,2.10
2023-03-15T16:01:59.121Z,2.73
2023-03-15T16:04:26.953Z,2.20
2023-03-15T16:07:03.996Z,1.70
2023-03-15T16:09:36.090Z,1.87
2023-03-15T16:12:10.662Z,1.97
2023-03-15T16:14:37.390Z,1.50
2023-03-15T16:17:18.353Z,5.40
2023-03-15T16:19:45.363Z,1.70
2023-03-15T16:22:12.094Z,2.00
2023-03-15T16:24:44.105Z,1.60
2023-03-15T16:27:15.793Z,1.60
2023-03-15T16:29:47.417Z,1.87
2023-03-15T16:32:26.704Z,2.13
2023-03-15T16:35:02.169Z,1.83
2023-03-15T16:37:33.002Z,2.30
2023-03-15T16:40:01.555Z,2.40
2023-03-15T16:42:28.506Z,2.00
2023-03-15T16:44:55.408Z,2.20
2023-03-15T16:47:22.391Z,2.27
2023-03-15T16:49:49.132Z,2.23
2023-03-15T16:52:16.985Z,2.70
2023-03-15T16:54:47.600Z,2.20
2023-03-15T16:57:22.545Z,2.23
2023-03-15T16:59:50.595Z,1.90
2023-03-15T17:02:27.666Z,1.60
2023-03-15T17:04:54.859Z,2.50
2023-03-15T17:07:34.652Z,1.70
2023-03-15T17:10:13.402Z,1.70
2023-03-15T17:12:41.564Z,1.73
2023-03-15T17:15:11.096Z,1.70
2023-03-15T17:17:37.867Z,2.00
2023-03-15T17:20:12.797Z,1.97
2023-03-15T17:22:44.356Z,1.80
2023-03-15T17:25:11.622Z,2.97
2023-03-15T17:27:42.884Z,4.40
2023-03-15T17:30:26.152Z,5.37
2023-03-15T17:32:54.014Z,3.70
2023-03-15T17:35:24.896Z,3.00
2023-03-15T17:37:51.693Z,5.03
2023-03-15T17:40:34.629Z,3.77
2023-03-15T17:43:03.960Z,3.33
2023-03-15T17:45:33.775Z,2.90
2023-03-15T17:48:02.256Z,2.60
2023-03-15T17:50:33.211Z,2.90
2023-03-15T17:53:20.999Z,2.70
2023-03-15T17:55:49.004Z,2.60
2023-03-15T17:58:21.024Z,2.30
2023-03-15T18:00:49.847Z,2.40
2023-03-15T18:03:18.088Z,2.60
2023-03-15T18:05:45.053Z,4.13
2023-03-15T18:08:18.084Z,4.30
2023-03-15T18:10:46.660Z,5.77
2023-03-15T18:13:21.296Z,7.87
2023-03-15T18:15:50.002Z,5.33
2023-03-15T18:18:17.649Z,4.83
2023-03-15T18:20:45.571Z,4.20
2023-03-15T18:23:15.428Z,3.60
2023-03-15T18:25:43.074Z,3.97
2023-03-15T18:28:12.142Z,4.67
2023-03-15T18:30:39.721Z,3.40
2023-03-15T18:33:06.674Z,3.93
2023-03-15T18:35:36.847Z,3.83
2023-03-15T18:38:05.407Z,3.53
2023-03-15T18:40:33.938Z,9.83
2023-03-15T18:43:01.367Z,12.10
2023-03-15T18:45:34.862Z,9.57
2023-03-15T18:48:02.146Z,14.20
2023-03-15T18:50:30.145Z,5.97
2023-03-15T18:52:57.692Z,5.63
2023-03-15T18:55:24.793Z,3.67
2023-03-15T18:57:53.689Z,3.63
2023-03-15T19:00:32.502Z,4.50
2023-03-15T19:03:01.841Z,6.63
2023-03-15T19:05:32.055Z,4.10
2023-03-15T19:07:58.928Z,4.67
2023-03-15T19:10:26.851Z,4.37
2023-03-15T19:12:54.152Z,4.27
2023-03-15T19:15:23.029Z,4.10
2023-03-15T19:17:54.278Z,4.27
2023-03-15T19:20:22.321Z,5.57
2023-03-15T19:22:51.161Z,4.30
2023-03-15T19:25:18.849Z,5.30
2023-03-15T19:27:45.631Z,8.37
2023-03-15T19:30:17.992Z,6.33
2023-03-15T19:32:47.900Z,6.13
2023-03-15T19:35:16.265Z,5.37
2023-03-15T19:37:44.283Z,5.10
2023-03-15T19:40:13.358Z,4.90
2023-03-15T19:42:40.380Z,5.43
2023-03-15T19:45:09.030Z,4.87
2023-03-15T19:47:36.014Z,5.40
2023-03-15T19:50:03.279Z,6.93
2023-03-15T19:52:30.112Z,6.70
2023-03-15T19:54:56.819Z,8.70
2023-03-15T19:57:23.586Z,7.97
2023-03-15T19:59:50.397Z,10.33
2023-03-15T20:02:17.140Z,10.17
2023-03-15T20:04:44.479Z,9.03
2023-03-15T20:07:12.235Z,8.80
2023-03-15T20:09:40.128Z,12.23
2023-03-15T20:12:10.881Z,8.03
2023-03-15T20:14:37.782Z,11.00
2023-03-15T20:17:04.647Z,9.23
2023-03-15T20:19:31.461Z,8.40
2023-03-15T20:21:58.557Z,8.63
2023-03-15T20:24:25.463Z,8.07
2023-03-15T20:26:53.161Z,13.13
2023-03-15T20:29:22.201Z,8.07
2023-03-15T20:31:49.815Z,7.93
2023-03-15T20:34:17.476Z,7.40
2023-03-15T20:36:44.575Z,13.10
2023-03-15T20:39:11.331Z,9.53
2023-03-15T20:41:39.013Z,7.97
2023-03-15T20:44:05.814Z,10.50
2023-03-15T20:46:33.042Z,30.57
2023-03-15T20:49:00.005Z,46.43
2023-03-15T20:51:26.748Z,31.53
2023-03-15T20:53:53.513Z,24.47
2023-03-15T20:56:21.759Z,23.03
2023-03-15T20:58:48.570Z,17.40
2023-03-15T21:01:16.673Z,15.63
2023-03-15T21:03:45.198Z,12.60
2023-03-15T21:06:13.733Z,10.23
2023-03-15T21:08:42.226Z,9.00
2023-03-15T21:11:09.615Z,5.40
2023-03-15T21:13:36.399Z,5.10
2023-03-15T21:16:04.584Z,14.20
2023-03-15T21:18:33.517Z,30.70
2023-03-15T21:21:04.775Z,41.73
2023-03-15T21:23:32.852Z,28.67
2023-03-15T21:26:03.836Z,17.17
2023-03-15T21:28:32.142Z,9.53
2023-03-15T21:30:59.427Z,8.40
2023-03-15T21:33:29.975Z,8.97
2023-03-15T21:35:58.885Z,6.40
2023-03-15T21:38:27.561Z,6.60
2023-03-15T21:41:00.515Z,5.77
2023-03-15T21:43:31.025Z,6.37
2023-03-15T21:46:11.911Z,5.70
2023-03-15T21:48:41.939Z,5.90
2023-03-15T21:51:09.538Z,8.43
2023-03-15T21:53:36.796Z,6.17
2023-03-15T21:56:04.313Z,7.00
2023-03-15T21:58:31.360Z,9.67
2023-03-15T22:01:05.547Z,17.03
2023-03-15T22:03:34.198Z,17.37
2023-03-15T22:06:01.470Z,13.50
2023-03-15T22:08:28.520Z,13.70
2023-03-15T22:10:58.405Z,6.90
2023-03-15T22:13:25.921Z,6.93
2023-03-15T22:15:53.344Z,5.63
2023-03-15T22:18:20.900Z,10.07
2023-03-15T22:20:49.712Z,13.83
2023-03-15T22:23:16.941Z,17.80
2023-03-15T22:25:43.757Z,12.13
2023-03-15T22:28:10.674Z,16.27
2023-03-15T22:30:37.558Z,8.90
2023-03-15T22:33:04.495Z,12.43
2023-03-15T22:35:31.454Z,5.80
2023-03-15T22:37:58.199Z,8.90
2023-03-15T22:40:28.149Z,11.83
2023-03-15T22:42:57.062Z,14.23
2023-03-15T22:45:25.812Z,14.47
2023-03-15T22:47:52.614Z,9.27
2023-03-15T22:50:19.383Z,7.03
2023-03-15T22:52:46.266Z,7.40
2023-03-15T22:55:13.552Z,5.07
2023-03-15T22:57:40.544Z,4.87
2023-03-15T23:00:13.550Z,6.63
2023-03-15T23:02:42.433Z,7.70
2023-03-15T23:05:11.582Z,8.20
2023-03-15T23:07:39.080Z,7.60
2023-03-15T23:10:07.316Z,11.17
2023-03-15T23:12:36.462Z,14.20
2023-03-15T23:15:04.899Z,26.30
2023-03-15T23:17:32.157Z,15.20
2023-03-15T23:19:58.970Z,14.43
2023-03-15T23:22:25.775Z,8.37
2023-03-15T23:24:52.733Z,12.23
2023-03-15T23:27:19.468Z,11.03
2023-03-15T23:29:54.376Z,12.17
2023-03-15T23:32:24.756Z,10.77
2023-03-15T23:34:53.459Z,9.43
2023-03-15T23:37:20.933Z,10.53
2023-03-15T23:39:47.685Z,9.57
2023-03-15T23:42:14.409Z,11.07
2023-03-15T23:44:41.405Z,11.07
2023-03-15T23:47:08.539Z,10.70
2023-03-15T23:49:35.552Z,10.90
2023-03-15T23:52:05.243Z,8.80
2023-03-15T23:54:40.234Z,8.53
2023-03-15T23:57:13.626Z,7.23
2023-03-15T23:59:41.595Z,6.50
